sensor_id;sensor_type;location;lat;lon;timestamp;P1;durP1;ratioP1;P2;durP2;ratioP2
17812;SDS011;9030;50.792;8.320;2022-09-25T00:01:35;40.45;;;36.65;;
17812;SDS011;9030;50.792;8.320;2022-09-25T00:04:02;39.92;;;36.15;;
17812;SDS011;9030;50.792;8.320;2022-09-25T00:06:30;39.53;;;35.72;;
17812;SDS011;9030;50.792;8.320;2022-09-25T00:08:58;41.75;;;37.85;;
17812;SDS011;9030;50.792;8.320;2022-09-25T00:11:28;43.97;;;39.63;;
17812;SDS011;9030;50.792;8.320;2022-09-25T00:13:57;44.97;;;40.45;;
17812;SDS011;9030;50.792;8.320;2022-09-25T00:16:25;41.97;;;38.17;;
17812;SDS011;9030;50.792;8.320;2022-09-25T00:18:54;46.08;;;41.88;;
17812;SDS011;9030;50.792;8.320;2022-09-25T00:21:38;43.83;;;39.65;;
17812;SDS011;9030;50.792;8.320;2022-09-25T00:24:06;43.30;;;39.08;;
17812;SDS011;9030;50.792;8.320;2022-09-25T00:26:36;41.35;;;37.33;;
17812;SDS011;9030;50.792;8.320;2022-09-25T00:29:06;43.00;;;39.03;;
17812;SDS011;9030;50.792;8.320;2022-09-25T00:31:34;46.08;;;41.78;;
17812;SDS011;9030;50.792;8.320;2022-09-25T00:34:02;45.92;;;41.33;;
17812;SDS011;9030;50.792;8.320;2022-09-25T00:36:30;44.03;;;39.80;;
17812;SDS011;9030;50.792;8.320;2022-09-25T00:38:57;47.63;;;43.10;;
17812;SDS011;9030;50.792;8.320;2022-09-25T00:41:25;46.63;;;42.33;;
17812;SDS011;9030;50.792;8.320;2022-09-25T00:43:55;40.45;;;36.72;;
17812;SDS011;9030;50.792;8.320;2022-09-25T00:46:23;38.45;;;34.90;;
17812;SDS011;9030;50.792;8.320;2022-09-25T00:48:54;36.83;;;33.28;;
17812;SDS011;9030;50.792;8.320;2022-09-25T00:51:25;41.70;;;37.97;;
17812;SDS011;9030;50.792;8.320;2022-09-25T00:53:55;41.55;;;37.47;;
17812;SDS011;9030;50.792;8.320;2022-09-25T00:56:27;36.38;;;33.08;;
17812;SDS011;9030;50.792;8.320;2022-09-25T00:59:01;38.53;;;34.75;;
17812;SDS011;9030;50.792;8.320;2022-09-25T01:01:28;42.15;;;37.92;;
17812;SDS011;9030;50.792;8.320;2022-09-25T01:03:55;41.38;;;37.30;;
17812;SDS011;9030;50.792;8.320;2022-09-25T01:06:21;40.70;;;36.40;;
17812;SDS011;9030;50.792;8.320;2022-09-25T01:08:51;31.65;;;28.75;;
17812;SDS011;9030;50.792;8.320;2022-09-25T01:11:18;35.45;;;32.25;;
17812;SDS011;9030;50.792;8.320;2022-09-25T01:13:44;34.70;;;31.33;;
17812;SDS011;9030;50.792;8.320;2022-09-25T01:16:14;43.15;;;39.25;;
17812;SDS011;9030;50.792;8.320;2022-09-25T01:18:53;44.95;;;40.90;;
17812;SDS011;9030;50.792;8.320;2022-09-25T01:21:30;47.75;;;43.60;;
17812;SDS011;9030;50.792;8.320;2022-09-25T01:30:07;41.50;;;37.85;;
17812;SDS011;9030;50.792;8.320;2022-09-25T01:32:38;47.05;;;42.95;;
17812;SDS011;9030;50.792;8.320;2022-09-25T01:35:18;49.40;;;44.55;;
17812;SDS011;9030;50.792;8.320;2022-09-25T01:38:01;47.28;;;42.97;;
17812;SDS011;9030;50.792;8.320;2022-09-25T01:40:36;53.58;;;48.63;;
17812;SDS011;9030;50.792;8.320;2022-09-25T01:43:09;53.22;;;48.20;;
17812;SDS011;9030;50.792;8.320;2022-09-25T01:45:41;55.38;;;50.30;;
17812;SDS011;9030;50.792;8.320;2022-09-25T01:48:12;53.60;;;48.75;;
17812;SDS011;9030;50.792;8.320;2022-09-25T01:50:43;58.28;;;52.80;;
17812;SDS011;9030;50.792;8.320;2022-09-25T01:53:15;55.88;;;50.60;;
17812;SDS011;9030;50.792;8.320;2022-09-25T01:55:47;57.35;;;52.17;;
17812;SDS011;9030;50.792;8.320;2022-09-25T01:58:18;60.92;;;55.42;;
17812;SDS011;9030;50.792;8.320;2022-09-25T02:00:52;59.30;;;53.78;;
17812;SDS011;9030;50.792;8.320;2022-09-25T02:03:24;57.57;;;51.63;;
17812;SDS011;9030;50.792;8.320;2022-09-25T02:05:55;57.95;;;52.53;;
17812;SDS011;9030;50.792;8.320;2022-09-25T02:08:26;56.30;;;50.67;;
17812;SDS011;9030;50.792;8.320;2022-09-25T02:10:57;58.03;;;52.63;;
17812;SDS011;9030;50.792;8.320;2022-09-25T02:13:26;56.22;;;50.85;;
17812;SDS011;9030;50.792;8.320;2022-09-25T02:16:03;59.00;;;53.58;;
17812;SDS011;9030;50.792;8.320;2022-09-25T02:18:34;58.33;;;52.78;;
17812;SDS011;9030;50.792;8.320;2022-09-25T02:21:20;58.60;;;53.20;;
17812;SDS011;9030;50.792;8.320;2022-09-25T02:23:55;45.53;;;41.63;;
17812;SDS011;9030;50.792;8.320;2022-09-25T02:26:27;48.90;;;44.38;;
17812;SDS011;9030;50.792;8.320;2022-09-25T02:28:55;53.20;;;48.30;;
17812;SDS011;9030;50.792;8.320;2022-09-25T02:31:25;55.53;;;50.47;;
17812;SDS011;9030;50.792;8.320;2022-09-25T02:33:55;57.90;;;52.80;;
17812;SDS011;9030;50.792;8.320;2022-09-25T02:36:23;55.60;;;50.53;;
17812;SDS011;9030;50.792;8.320;2022-09-25T02:38:50;56.33;;;51.03;;
17812;SDS011;9030;50.792;8.320;2022-09-25T02:41:22;60.17;;;54.95;;
17812;SDS011;9030;50.792;8.320;2022-09-25T02:44:01;61.50;;;56.22;;
17812;SDS011;9030;50.792;8.320;2022-09-25T02:46:38;53.58;;;48.80;;
17812;SDS011;9030;50.792;8.320;2022-09-25T02:49:12;56.95;;;51.75;;
17812;SDS011;9030;50.792;8.320;2022-09-25T02:51:45;52.00;;;47.55;;
17812;SDS011;9030;50.792;8.320;2022-09-25T02:54:21;54.22;;;48.75;;
17812;SDS011;9030;50.792;8.320;2022-09-25T02:56:55;53.75;;;48.85;;
17812;SDS011;9030;50.792;8.320;2022-09-25T02:59:31;44.97;;;40.78;;
17812;SDS011;9030;50.792;8.320;2022-09-25T03:02:02;45.53;;;41.67;;
17812;SDS011;9030;50.792;8.320;2022-09-25T03:04:29;41.42;;;37.80;;
17812;SDS011;9030;50.792;8.320;2022-09-25T03:06:58;46.63;;;42.53;;
17812;SDS011;9030;50.792;8.320;2022-09-25T03:09:26;42.72;;;38.90;;
17812;SDS011;9030;50.792;8.320;2022-09-25T03:11:55;42.42;;;38.65;;
17812;SDS011;9030;50.792;8.320;2022-09-25T03:14:23;41.92;;;38.17;;
17812;SDS011;9030;50.792;8.320;2022-09-25T03:16:52;40.30;;;36.38;;
17812;SDS011;9030;50.792;8.320;2022-09-25T03:19:22;46.00;;;41.90;;
17812;SDS011;9030;50.792;8.320;2022-09-25T03:21:52;40.80;;;37.55;;
17812;SDS011;9030;50.792;8.320;2022-09-25T03:24:19;44.15;;;40.03;;
17812;SDS011;9030;50.792;8.320;2022-09-25T03:26:46;41.83;;;38.20;;
17812;SDS011;9030;50.792;8.320;2022-09-25T03:29:13;41.78;;;38.05;;
17812;SDS011;9030;50.792;8.320;2022-09-25T03:31:41;35.42;;;32.15;;
17812;SDS011;9030;50.792;8.320;2022-09-25T03:34:09;35.38;;;31.92;;
17812;SDS011;9030;50.792;8.320;2022-09-25T03:36:38;50.80;;;45.97;;
17812;SDS011;9030;50.792;8.320;2022-09-25T03:39:05;41.55;;;38.03;;
17812;SDS011;9030;50.792;8.320;2022-09-25T03:41:34;47.17;;;42.85;;
17812;SDS011;9030;50.792;8.320;2022-09-25T03:44:02;52.42;;;47.63;;
17812;SDS011;9030;50.792;8.320;2022-09-25T03:46:29;48.90;;;44.42;;
17812;SDS011;9030;50.792;8.320;2022-09-25T03:48:58;39.75;;;36.20;;
17812;SDS011;9030;50.792;8.320;2022-09-25T03:51:25;45.78;;;41.58;;
17812;SDS011;9030;50.792;8.320;2022-09-25T03:53:55;33.45;;;30.35;;
17812;SDS011;9030;50.792;8.320;2022-09-25T03:56:22;39.45;;;35.90;;
17812;SDS011;9030;50.792;8.320;2022-09-25T03:58:51;37.15;;;33.85;;
17812;SDS011;9030;50.792;8.320;2022-09-25T04:01:19;34.13;;;31.00;;
17812;SDS011;9030;50.792;8.320;2022-09-25T04:03:47;34.22;;;31.05;;
17812;SDS011;9030;50.792;8.320;2022-09-25T04:06:15;45.10;;;40.67;;
17812;SDS011;9030;50.792;8.320;2022-09-25T04:08:43;45.35;;;41.45;;
17812;SDS011;9030;50.792;8.320;2022-09-25T04:11:12;40.83;;;37.17;;
17812;SDS011;9030;50.792;8.320;2022-09-25T04:13:40;36.58;;;33.35;;
17812;SDS011;9030;50.792;8.320;2022-09-25T04:16:08;41.20;;;37.45;;
17812;SDS011;9030;50.792;8.320;2022-09-25T04:18:35;31.83;;;28.95;;
17812;SDS011;9030;50.792;8.320;2022-09-25T04:21:03;46.85;;;42.28;;
17812;SDS011;9030;50.792;8.320;2022-09-25T04:23:31;38.28;;;34.80;;
17812;SDS011;9030;50.792;8.320;2022-09-25T04:25:58;41.72;;;38.10;;
17812;SDS011;9030;50.792;8.320;2022-09-25T04:28:26;48.25;;;43.55;;
17812;SDS011;9030;50.792;8.320;2022-09-25T04:30:55;44.58;;;40.17;;
17812;SDS011;9030;50.792;8.320;2022-09-25T04:33:21;37.47;;;33.88;;
17812;SDS011;9030;50.792;8.320;2022-09-25T04:36:06;38.65;;;35.15;;
17812;SDS011;9030;50.792;8.320;2022-09-25T04:38:33;45.97;;;41.78;;
17812;SDS011;9030;50.792;8.320;2022-09-25T04:41:00;45.10;;;40.90;;
17812;SDS011;9030;50.792;8.320;2022-09-25T04:43:29;34.90;;;31.77;;
17812;SDS011;9030;50.792;8.320;2022-09-25T04:45:59;41.42;;;37.67;;
17812;SDS011;9030;50.792;8.320;2022-09-25T04:48:26;42.10;;;38.30;;
17812;SDS011;9030;50.792;8.320;2022-09-25T04:50:54;44.72;;;40.65;;
17812;SDS011;9030;50.792;8.320;2022-09-25T04:53:22;52.70;;;47.42;;
17812;SDS011;9030;50.792;8.320;2022-09-25T04:55:50;43.15;;;38.95;;
17812;SDS011;9030;50.792;8.320;2022-09-25T04:58:18;89.35;;;77.50;;
17812;SDS011;9030;50.792;8.320;2022-09-25T05:00:47;50.75;;;45.95;;
17812;SDS011;9030;50.792;8.320;2022-09-25T05:03:14;56.40;;;51.22;;
17812;SDS011;9030;50.792;8.320;2022-09-25T05:05:41;56.77;;;51.17;;
17812;SDS011;9030;50.792;8.320;2022-09-25T05:08:08;47.58;;;43.10;;
17812;SDS011;9030;50.792;8.320;2022-09-25T05:10:35;48.65;;;44.05;;
17812;SDS011;9030;50.792;8.320;2022-09-25T05:13:05;42.13;;;38.40;;
17812;SDS011;9030;50.792;8.320;2022-09-25T05:15:33;42.28;;;38.50;;
17812;SDS011;9030;50.792;8.320;2022-09-25T05:18:02;47.17;;;42.92;;
17812;SDS011;9030;50.792;8.320;2022-09-25T05:20:31;52.22;;;47.17;;
17812;SDS011;9030;50.792;8.320;2022-09-25T05:22:58;47.95;;;43.53;;
17812;SDS011;9030;50.792;8.320;2022-09-25T05:25:25;52.97;;;47.90;;
17812;SDS011;9030;50.792;8.320;2022-09-25T05:27:52;65.65;;;59.25;;
17812;SDS011;9030;50.792;8.320;2022-09-25T05:30:22;64.05;;;57.60;;
17812;SDS011;9030;50.792;8.320;2022-09-25T05:32:49;65.23;;;58.90;;
17812;SDS011;9030;50.792;8.320;2022-09-25T05:35:18;73.23;;;65.37;;
17812;SDS011;9030;50.792;8.320;2022-09-25T05:37:46;68.10;;;60.67;;
17812;SDS011;9030;50.792;8.320;2022-09-25T05:40:13;72.47;;;65.30;;
17812;SDS011;9030;50.792;8.320;2022-09-25T05:42:41;65.73;;;59.07;;
17812;SDS011;9030;50.792;8.320;2022-09-25T05:45:08;65.03;;;58.50;;
17812;SDS011;9030;50.792;8.320;2022-09-25T05:47:36;52.03;;;47.28;;
17812;SDS011;9030;50.792;8.320;2022-09-25T05:50:03;48.50;;;44.22;;
17812;SDS011;9030;50.792;8.320;2022-09-25T05:52:32;46.40;;;42.22;;
17812;SDS011;9030;50.792;8.320;2022-09-25T05:54:59;46.33;;;42.20;;
17812;SDS011;9030;50.792;8.320;2022-09-25T05:57:29;58.83;;;52.88;;
17812;SDS011;9030;50.792;8.320;2022-09-25T05:59:56;55.80;;;50.42;;
17812;SDS011;9030;50.792;8.320;2022-09-25T06:02:23;54.60;;;49.13;;
17812;SDS011;9030;50.792;8.320;2022-09-25T06:04:49;58.58;;;52.47;;
17812;SDS011;9030;50.792;8.320;2022-09-25T06:07:16;63.75;;;57.30;;
17812;SDS011;9030;50.792;8.320;2022-09-25T06:09:44;63.97;;;57.17;;
17812;SDS011;9030;50.792;8.320;2022-09-25T06:12:11;65.85;;;59.13;;
17812;SDS011;9030;50.792;8.320;2022-09-25T06:14:38;55.63;;;50.03;;
17812;SDS011;9030;50.792;8.320;2022-09-25T06:17:05;61.90;;;55.22;;
17812;SDS011;9030;50.792;8.320;2022-09-25T06:19:32;62.60;;;55.95;;
17812;SDS011;9030;50.792;8.320;2022-09-25T06:21:59;56.72;;;50.58;;
17812;SDS011;9030;50.792;8.320;2022-09-25T06:24:26;58.63;;;52.47;;
17812;SDS011;9030;50.792;8.320;2022-09-25T06:26:54;55.83;;;50.08;;
17812;SDS011;9030;50.792;8.320;2022-09-25T06:29:21;55.40;;;49.70;;
17812;SDS011;9030;50.792;8.320;2022-09-25T06:31:48;32.33;;;29.15;;
17812;SDS011;9030;50.792;8.320;2022-09-25T06:34:16;44.67;;;40.22;;
17812;SDS011;9030;50.792;8.320;2022-09-25T06:36:43;36.17;;;32.45;;
17812;SDS011;9030;50.792;8.320;2022-09-25T06:39:10;30.88;;;28.05;;
17812;SDS011;9030;50.792;8.320;2022-09-25T06:41:36;33.42;;;30.10;;
17812;SDS011;9030;50.792;8.320;2022-09-25T06:44:05;29.75;;;26.80;;
17812;SDS011;9030;50.792;8.320;2022-09-25T06:46:33;32.75;;;29.65;;
17812;SDS011;9030;50.792;8.320;2022-09-25T06:48:59;27.40;;;24.63;;
17812;SDS011;9030;50.792;8.320;2022-09-25T06:51:26;26.92;;;24.42;;
17812;SDS011;9030;50.792;8.320;2022-09-25T06:53:56;27.00;;;24.40;;
17812;SDS011;9030;50.792;8.320;2022-09-25T06:56:24;32.53;;;29.63;;
17812;SDS011;9030;50.792;8.320;2022-09-25T06:58:51;35.10;;;31.67;;
17812;SDS011;9030;50.792;8.320;2022-09-25T07:01:20;28.73;;;25.90;;
17812;SDS011;9030;50.792;8.320;2022-09-25T07:03:47;26.05;;;23.63;;
17812;SDS011;9030;50.792;8.320;2022-09-25T07:06:14;27.95;;;25.20;;
17812;SDS011;9030;50.792;8.320;2022-09-25T07:08:42;24.75;;;22.35;;
17812;SDS011;9030;50.792;8.320;2022-09-25T07:11:10;23.88;;;21.48;;
17812;SDS011;9030;50.792;8.320;2022-09-25T07:13:39;20.63;;;17.75;;
17812;SDS011;9030;50.792;8.320;2022-09-25T07:16:07;25.02;;;22.70;;
17812;SDS011;9030;50.792;8.320;2022-09-25T07:18:37;21.63;;;19.42;;
17812;SDS011;9030;50.792;8.320;2022-09-25T07:21:05;19.48;;;17.42;;
17812;SDS011;9030;50.792;8.320;2022-09-25T07:23:33;22.33;;;20.05;;
17812;SDS011;9030;50.792;8.320;2022-09-25T07:26:05;18.73;;;16.73;;
17812;SDS011;9030;50.792;8.320;2022-09-25T07:28:34;19.98;;;17.58;;
17812;SDS011;9030;50.792;8.320;2022-09-25T07:31:08;20.25;;;17.10;;
17812;SDS011;9030;50.792;8.320;2022-09-25T07:33:40;20.85;;;18.70;;
17812;SDS011;9030;50.792;8.320;2022-09-25T07:36:07;24.30;;;21.40;;
17812;SDS011;9030;50.792;8.320;2022-09-25T07:38:34;19.90;;;17.80;;
17812;SDS011;9030;50.792;8.320;2022-09-25T07:41:02;20.52;;;18.33;;
17812;SDS011;9030;50.792;8.320;2022-09-25T07:43:30;19.88;;;17.55;;
17812;SDS011;9030;50.792;8.320;2022-09-25T07:45:57;19.92;;;16.65;;
17812;SDS011;9030;50.792;8.320;2022-09-25T07:48:24;23.25;;;20.85;;
17812;SDS011;9030;50.792;8.320;2022-09-25T07:50:52;20.85;;;18.75;;
17812;SDS011;9030;50.792;8.320;2022-09-25T07:53:19;18.20;;;16.08;;
17812;SDS011;9030;50.792;8.320;2022-09-25T07:55:46;17.10;;;15.30;;
17812;SDS011;9030;50.792;8.320;2022-09-25T07:58:13;23.13;;;18.50;;
17812;SDS011;9030;50.792;8.320;2022-09-25T08:00:40;19.90;;;16.75;;
17812;SDS011;9030;50.792;8.320;2022-09-25T08:03:13;18.83;;;14.40;;
17812;SDS011;9030;50.792;8.320;2022-09-25T08:05:43;19.42;;;17.35;;
17812;SDS011;9030;50.792;8.320;2022-09-25T08:08:11;18.15;;;15.23;;
17812;SDS011;9030;50.792;8.320;2022-09-25T08:10:38;19.17;;;17.15;;
17812;SDS011;9030;50.792;8.320;2022-09-25T08:13:05;18.25;;;14.25;;
17812;SDS011;9030;50.792;8.320;2022-09-25T08:15:31;16.55;;;12.93;;
17812;SDS011;9030;50.792;8.320;2022-09-25T08:17:58;18.73;;;15.95;;
17812;SDS011;9030;50.792;8.320;2022-09-25T08:20:25;19.25;;;15.20;;
17812;SDS011;9030;50.792;8.320;2022-09-25T08:22:52;16.67;;;13.82;;
17812;SDS011;9030;50.792;8.320;2022-09-25T08:25:22;15.07;;;12.95;;
17812;SDS011;9030;50.792;8.320;2022-09-25T08:27:49;18.83;;;16.45;;
17812;SDS011;9030;50.792;8.320;2022-09-25T08:30:16;15.05;;;12.02;;
17812;SDS011;9030;50.792;8.320;2022-09-25T08:32:42;17.02;;;14.18;;
17812;SDS011;9030;50.792;8.320;2022-09-25T08:35:09;20.17;;;14.95;;
17812;SDS011;9030;50.792;8.320;2022-09-25T08:37:38;18.38;;;13.27;;
17812;SDS011;9030;50.792;8.320;2022-09-25T08:40:08;17.10;;;14.75;;
17812;SDS011;9030;50.792;8.320;2022-09-25T08:42:43;16.30;;;11.85;;
17812;SDS011;9030;50.792;8.320;2022-09-25T08:45:17;17.02;;;12.77;;
17812;SDS011;9030;50.792;8.320;2022-09-25T08:48:09;14.93;;;12.70;;
17812;SDS011;9030;50.792;8.320;2022-09-25T08:51:01;18.40;;;14.00;;
17812;SDS011;9030;50.792;8.320;2022-09-25T08:53:30;19.52;;;14.98;;
17812;SDS011;9030;50.792;8.320;2022-09-25T08:55:59;14.65;;;11.73;;
17812;SDS011;9030;50.792;8.320;2022-09-25T08:58:44;22.40;;;15.52;;
17812;SDS011;9030;50.792;8.320;2022-09-25T09:01:18;17.77;;;12.57;;
17812;SDS011;9030;50.792;8.320;2022-09-25T09:03:49;15.98;;;9.55;;
17812;SDS011;9030;50.792;8.320;2022-09-25T09:06:19;16.95;;;13.15;;
17812;SDS011;9030;50.792;8.320;2022-09-25T09:08:50;13.77;;;11.65;;
17812;SDS011;9030;50.792;8.320;2022-09-25T09:11:21;17.55;;;12.98;;
17812;SDS011;9030;50.792;8.320;2022-09-25T09:13:54;17.30;;;15.27;;
17812;SDS011;9030;50.792;8.320;2022-09-25T09:16:27;16.02;;;10.38;;
17812;SDS011;9030;50.792;8.320;2022-09-25T09:18:58;14.73;;;12.05;;
17812;SDS011;9030;50.792;8.320;2022-09-25T09:21:31;14.18;;;10.77;;
17812;SDS011;9030;50.792;8.320;2022-09-25T09:24:03;17.48;;;11.73;;
17812;SDS011;9030;50.792;8.320;2022-09-25T09:26:34;16.30;;;11.90;;
17812;SDS011;9030;50.792;8.320;2022-09-25T09:29:16;12.60;;;9.20;;
17812;SDS011;9030;50.792;8.320;2022-09-25T09:31:52;12.93;;;9.13;;
17812;SDS011;9030;50.792;8.320;2022-09-25T09:34:35;13.68;;;10.45;;
17812;SDS011;9030;50.792;8.320;2022-09-25T09:37:14;11.80;;;9.18;;
17812;SDS011;9030;50.792;8.320;2022-09-25T09:39:49;23.75;;;14.63;;
17812;SDS011;9030;50.792;8.320;2022-09-25T09:42:26;20.25;;;16.58;;
17812;SDS011;9030;50.792;8.320;2022-09-25T09:45:02;23.02;;;15.88;;
17812;SDS011;9030;50.792;8.320;2022-09-25T09:47:39;18.58;;;14.15;;
17812;SDS011;9030;50.792;8.320;2022-09-25T09:50:20;13.88;;;8.65;;
17812;SDS011;9030;50.792;8.320;2022-09-25T09:52:53;11.85;;;7.72;;
17812;SDS011;9030;50.792;8.320;2022-09-25T09:55:29;14.45;;;9.13;;
17812;SDS011;9030;50.792;8.320;2022-09-25T09:58:03;17.08;;;10.10;;
17812;SDS011;9030;50.792;8.320;2022-09-25T10:00:36;13.40;;;9.82;;
17812;SDS011;9030;50.792;8.320;2022-09-25T10:03:10;14.25;;;5.63;;
17812;SDS011;9030;50.792;8.320;2022-09-25T10:05:40;15.18;;;8.80;;
17812;SDS011;9030;50.792;8.320;2022-09-25T10:08:11;15.90;;;7.18;;
17812;SDS011;9030;50.792;8.320;2022-09-25T10:10:39;11.82;;;5.38;;
17812;SDS011;9030;50.792;8.320;2022-09-25T10:13:10;12.68;;;5.93;;
17812;SDS011;9030;50.792;8.320;2022-09-25T10:15:41;11.88;;;4.97;;
17812;SDS011;9030;50.792;8.320;2022-09-25T10:18:13;14.75;;;5.30;;
17812;SDS011;9030;50.792;8.320;2022-09-25T10:20:42;16.45;;;7.40;;
17812;SDS011;9030;50.792;8.320;2022-09-25T10:23:15;13.32;;;6.10;;
17812;SDS011;9030;50.792;8.320;2022-09-25T10:25:50;20.05;;;12.10;;
17812;SDS011;9030;50.792;8.320;2022-09-25T10:28:20;11.98;;;4.85;;
17812;SDS011;9030;50.792;8.320;2022-09-25T10:30:52;13.63;;;3.50;;
17812;SDS011;9030;50.792;8.320;2022-09-25T10:33:19;14.13;;;3.45;;
17812;SDS011;9030;50.792;8.320;2022-09-25T10:35:48;14.27;;;4.18;;
17812;SDS011;9030;50.792;8.320;2022-09-25T10:38:23;10.98;;;3.88;;
17812;SDS011;9030;50.792;8.320;2022-09-25T10:40:58;12.13;;;3.70;;
17812;SDS011;9030;50.792;8.320;2022-09-25T10:43:28;11.27;;;3.67;;
17812;SDS011;9030;50.792;8.320;2022-09-25T10:46:06;9.98;;;3.30;;
17812;SDS011;9030;50.792;8.320;2022-09-25T10:48:36;9.85;;;3.20;;
17812;SDS011;9030;50.792;8.320;2022-09-25T10:51:21;11.50;;;3.17;;
17812;SDS011;9030;50.792;8.320;2022-09-25T10:53:49;11.88;;;3.78;;
17812;SDS011;9030;50.792;8.320;2022-09-25T10:56:18;12.60;;;3.13;;
17812;SDS011;9030;50.792;8.320;2022-09-25T10:58:51;12.82;;;3.47;;
17812;SDS011;9030;50.792;8.320;2022-09-25T11:01:27;13.05;;;3.03;;
17812;SDS011;9030;50.792;8.320;2022-09-25T11:03:57;8.65;;;2.90;;
17812;SDS011;9030;50.792;8.320;2022-09-25T11:06:25;11.18;;;2.90;;
17812;SDS011;9030;50.792;8.320;2022-09-25T11:09:00;15.05;;;3.25;;
17812;SDS011;9030;50.792;8.320;2022-09-25T11:11:33;8.00;;;2.83;;
17812;SDS011;9030;50.792;8.320;2022-09-25T11:14:03;12.50;;;3.00;;
17812;SDS011;9030;50.792;8.320;2022-09-25T11:16:50;8.70;;;3.10;;
17812;SDS011;9030;50.792;8.320;2022-09-25T11:19:21;12.05;;;2.92;;
17812;SDS011;9030;50.792;8.320;2022-09-25T11:21:55;8.98;;;3.00;;
17812;SDS011;9030;50.792;8.320;2022-09-25T11:24:34;11.10;;;2.47;;
17812;SDS011;9030;50.792;8.320;2022-09-25T11:27:11;16.75;;;2.92;;
17812;SDS011;9030;50.792;8.320;2022-09-25T11:29:45;11.07;;;3.63;;
17812;SDS011;9030;50.792;8.320;2022-09-25T11:32:21;8.48;;;3.15;;
17812;SDS011;9030;50.792;8.320;2022-09-25T11:34:57;12.73;;;3.42;;
17812;SDS011;9030;50.792;8.320;2022-09-25T11:37:45;9.02;;;2.75;;
17812;SDS011;9030;50.792;8.320;2022-09-25T11:40:23;13.48;;;2.88;;
17812;SDS011;9030;50.792;8.320;2022-09-25T11:43:14;13.00;;;2.70;;
17812;SDS011;9030;50.792;8.320;2022-09-25T11:45:44;9.55;;;2.30;;
17812;SDS011;9030;50.792;8.320;2022-09-25T11:48:19;8.10;;;2.30;;
17812;SDS011;9030;50.792;8.320;2022-09-25T11:50:52;13.40;;;2.28;;
17812;SDS011;9030;50.792;8.320;2022-09-25T11:53:25;11.80;;;2.35;;
17812;SDS011;9030;50.792;8.320;2022-09-25T11:56:02;8.60;;;1.80;;
17812;SDS011;9030;50.792;8.320;2022-09-25T11:58:44;8.35;;;2.50;;
17812;SDS011;9030;50.792;8.320;2022-09-25T12:01:24;7.93;;;1.60;;
17812;SDS011;9030;50.792;8.320;2022-09-25T12:04:02;9.43;;;2.28;;
17812;SDS011;9030;50.792;8.320;2022-09-25T12:06:58;8.10;;;2.00;;
17812;SDS011;9030;50.792;8.320;2022-09-25T12:09:39;10.73;;;2.05;;
17812;SDS011;9030;50.792;8.320;2022-09-25T12:12:17;11.00;;;1.70;;
17812;SDS011;9030;50.792;8.320;2022-09-25T12:14:52;10.65;;;2.60;;
17812;SDS011;9030;50.792;8.320;2022-09-25T12:17:28;10.82;;;2.25;;
17812;SDS011;9030;50.792;8.320;2022-09-25T12:20:10;11.43;;;2.28;;
17812;SDS011;9030;50.792;8.320;2022-09-25T12:22:59;9.02;;;1.65;;
17812;SDS011;9030;50.792;8.320;2022-09-25T12:25:38;15.60;;;5.32;;
17812;SDS011;9030;50.792;8.320;2022-09-25T12:28:19;11.88;;;3.40;;
17812;SDS011;9030;50.792;8.320;2022-09-25T12:30:59;23.63;;;9.25;;
17812;SDS011;9030;50.792;8.320;2022-09-25T12:33:37;29.70;;;16.08;;
17812;SDS011;9030;50.792;8.320;2022-09-25T12:36:19;15.13;;;7.32;;
17812;SDS011;9030;50.792;8.320;2022-09-25T12:38:53;8.07;;;2.28;;
17812;SDS011;9030;50.792;8.320;2022-09-25T12:41:23;15.82;;;5.38;;
17812;SDS011;9030;50.792;8.320;2022-09-25T12:43:59;9.75;;;2.53;;
17812;SDS011;9030;50.792;8.320;2022-09-25T12:46:35;20.45;;;10.95;;
17812;SDS011;9030;50.792;8.320;2022-09-25T12:49:10;27.25;;;17.52;;
17812;SDS011;9030;50.792;8.320;2022-09-25T12:51:41;14.90;;;7.18;;
17812;SDS011;9030;50.792;8.320;2022-09-25T12:54:13;12.73;;;4.93;;
17812;SDS011;9030;50.792;8.320;2022-09-25T12:56:49;13.27;;;4.47;;
17812;SDS011;9030;50.792;8.320;2022-09-25T12:59:24;6.40;;;1.85;;
17812;SDS011;9030;50.792;8.320;2022-09-25T13:01:59;8.95;;;2.22;;
17812;SDS011;9030;50.792;8.320;2022-09-25T13:04:36;9.48;;;1.65;;
17812;SDS011;9030;50.792;8.320;2022-09-25T13:07:16;7.60;;;2.00;;
17812;SDS011;9030;50.792;8.320;2022-09-25T13:09:47;8.63;;;1.42;;
17812;SDS011;9030;50.792;8.320;2022-09-25T13:12:20;6.60;;;1.48;;
17812;SDS011;9030;50.792;8.320;2022-09-25T13:14:58;12.68;;;3.88;;
17812;SDS011;9030;50.792;8.320;2022-09-25T13:17:27;7.90;;;1.85;;
17812;SDS011;9030;50.792;8.320;2022-09-25T13:23:04;9.30;;;2.10;;
17812;SDS011;9030;50.792;8.320;2022-09-25T13:25:38;7.70;;;1.30;;
17812;SDS011;9030;50.792;8.320;2022-09-25T13:28:08;7.40;;;1.48;;
17812;SDS011;9030;50.792;8.320;2022-09-25T13:30:55;7.25;;;1.60;;
17812;SDS011;9030;50.792;8.320;2022-09-25T13:33:26;10.52;;;1.42;;
17812;SDS011;9030;50.792;8.320;2022-09-25T13:36:05;14.93;;;2.22;;
17812;SDS011;9030;50.792;8.320;2022-09-25T13:38:49;8.68;;;1.95;;
17812;SDS011;9030;50.792;8.320;2022-09-25T13:41:45;7.90;;;2.40;;
17812;SDS011;9030;50.792;8.320;2022-09-25T13:50:17;10.60;;;2.60;;
17812;SDS011;9030;50.792;8.320;2022-09-25T13:53:01;12.02;;;2.08;;
17812;SDS011;9030;50.792;8.320;2022-09-25T13:56:11;10.63;;;1.60;;
17812;SDS011;9030;50.792;8.320;2022-09-25T14:01:32;8.38;;;3.47;;
17812;SDS011;9030;50.792;8.320;2022-09-25T14:04:09;7.85;;;2.60;;
17812;SDS011;9030;50.792;8.320;2022-09-25T14:06:41;9.73;;;2.17;;
17812;SDS011;9030;50.792;8.320;2022-09-25T14:09:12;8.80;;;3.10;;
17812;SDS011;9030;50.792;8.320;2022-09-25T14:11:43;10.60;;;3.15;;
17812;SDS011;9030;50.792;8.320;2022-09-25T14:14:21;9.73;;;3.33;;
17812;SDS011;9030;50.792;8.320;2022-09-25T14:16:52;11.25;;;1.80;;
17812;SDS011;9030;50.792;8.320;2022-09-25T14:19:25;8.45;;;1.90;;
17812;SDS011;9030;50.792;8.320;2022-09-25T14:21:55;9.07;;;1.95;;
17812;SDS011;9030;50.792;8.320;2022-09-25T14:24:25;9.38;;;2.40;;
17812;SDS011;9030;50.792;8.320;2022-09-25T14:29:45;7.40;;;1.75;;
17812;SDS011;9030;50.792;8.320;2022-09-25T14:32:18;4.63;;;1.75;;
17812;SDS011;9030;50.792;8.320;2022-09-25T14:35:00;6.85;;;1.92;;
17812;SDS011;9030;50.792;8.320;2022-09-25T14:37:46;8.55;;;1.70;;
17812;SDS011;9030;50.792;8.320;2022-09-25T14:40:27;6.97;;;2.03;;
17812;SDS011;9030;50.792;8.320;2022-09-25T14:43:05;7.05;;;1.88;;
17812;SDS011;9030;50.792;8.320;2022-09-25T14:45:50;12.07;;;2.00;;
17812;SDS011;9030;50.792;8.320;2022-09-25T14:48:27;7.60;;;1.60;;
17812;SDS011;9030;50.792;8.320;2022-09-25T14:50:58;8.70;;;1.85;;
17812;SDS011;9030;50.792;8.320;2022-09-25T14:53:28;8.48;;;1.85;;
17812;SDS011;9030;50.792;8.320;2022-09-25T14:56:03;5.40;;;1.23;;
17812;SDS011;9030;50.792;8.320;2022-09-25T14:58:42;7.28;;;1.73;;
17812;SDS011;9030;50.792;8.320;2022-09-25T15:01:12;5.50;;;1.35;;
17812;SDS011;9030;50.792;8.320;2022-09-25T15:03:43;6.32;;;1.30;;
17812;SDS011;9030;50.792;8.320;2022-09-25T15:06:21;8.05;;;1.23;;
17812;SDS011;9030;50.792;8.320;2022-09-25T15:08:55;10.85;;;1.65;;
17812;SDS011;9030;50.792;8.320;2022-09-25T15:11:26;3.40;;;0.80;;
17812;SDS011;9030;50.792;8.320;2022-09-25T15:14:12;11.13;;;1.85;;
17812;SDS011;9030;50.792;8.320;2022-09-25T15:16:43;8.48;;;1.38;;
17812;SDS011;9030;50.792;8.320;2022-09-25T15:19:29;6.85;;;1.65;;
17812;SDS011;9030;50.792;8.320;2022-09-25T15:21:58;6.70;;;1.25;;
17812;SDS011;9030;50.792;8.320;2022-09-25T15:24:26;7.65;;;1.70;;
17812;SDS011;9030;50.792;8.320;2022-09-25T15:26:56;6.20;;;1.85;;
17812;SDS011;9030;50.792;8.320;2022-09-25T15:29:29;6.38;;;2.20;;